createdAt,value
2019-02-07T00:00:56.306Z,1.50
2019-02-07T00:03:25.598Z,1.50
2019-02-07T00:05:54.873Z,1.50
2019-02-07T00:08:24.403Z,1.60
2019-02-07T00:10:53.755Z,1.60
2019-02-07T00:13:23.044Z,1.70
2019-02-07T00:15:52.346Z,1.70
2019-02-07T00:18:21.702Z,1.80
2019-02-07T00:20:50.990Z,1.70
2019-02-07T00:23:20.434Z,1.80
2019-02-07T00:25:49.725Z,1.90
2019-02-07T00:28:19.005Z,1.90
2019-02-07T00:30:48.371Z,1.90
2019-02-07T00:33:17.639Z,1.80
2019-02-07T00:35:46.998Z,1.70
2019-02-07T00:38:16.354Z,1.60
2019-02-07T00:40:45.796Z,1.50
2019-02-07T00:43:15.069Z,1.40
2019-02-07T00:45:44.337Z,1.40
2019-02-07T00:48:14.598Z,1.40
2019-02-07T00:50:43.897Z,2.60
2019-02-07T00:53:13.182Z,1.40
2019-02-07T00:55:42.468Z,1.50
2019-02-07T00:58:11.750Z,1.40
2019-02-07T01:00:42.406Z,1.50
2019-02-07T01:03:11.757Z,1.50
2019-02-07T01:05:41.429Z,1.50
2019-02-07T01:08:10.845Z,1.50
2019-02-07T01:10:40.195Z,1.50
2019-02-07T01:13:09.548Z,1.50
2019-02-07T01:15:39.118Z,1.50
2019-02-07T01:18:08.642Z,1.50
2019-02-07T01:20:38.947Z,1.50
2019-02-07T01:23:08.229Z,1.40
2019-02-07T01:25:37.582Z,1.40
2019-02-07T01:28:06.861Z,1.50
2019-02-07T01:30:36.214Z,1.50
2019-02-07T01:33:05.507Z,1.50
2019-02-07T01:35:35.169Z,1.50
2019-02-07T01:38:04.455Z,1.60
2019-02-07T01:40:33.738Z,1.60
2019-02-07T01:43:03.017Z,1.70
2019-02-07T01:45:32.304Z,1.80
2019-02-07T01:48:01.586Z,1.80
2019-02-07T01:50:31.202Z,1.80
2019-02-07T01:53:00.486Z,1.90
2019-02-07T01:55:29.766Z,1.90
2019-02-07T01:57:59.058Z,2.00
2019-02-07T02:00:29.670Z,1.90
2019-02-07T02:02:59.527Z,2.00
2019-02-07T02:05:29.078Z,2.10
2019-02-07T02:07:58.358Z,2.10
2019-02-07T02:10:30.539Z,2.10
2019-02-07T02:12:59.817Z,2.00
2019-02-07T02:15:29.169Z,2.00
2019-02-07T02:17:58.442Z,2.30
2019-02-07T02:20:28.042Z,2.20
2019-02-07T02:22:58.671Z,2.10
2019-02-07T02:25:28.039Z,2.20
2019-02-07T02:27:57.334Z,2.20
2019-02-07T02:30:29.620Z,2.40
2019-02-07T02:32:58.980Z,2.30
2019-02-07T02:35:28.532Z,2.30
2019-02-07T02:37:57.864Z,2.30
2019-02-07T02:40:27.223Z,2.20
2019-02-07T02:42:56.743Z,2.30
2019-02-07T02:45:37.023Z,2.40
2019-02-07T02:47:57.399Z,3.70
2019-02-07T02:50:26.698Z,2.70
2019-02-07T02:52:55.974Z,2.70
2019-02-07T02:55:32.554Z,2.60
2019-02-07T02:58:02.084Z,2.60
2019-02-07T03:00:38.718Z,2.50
2019-02-07T03:03:18.387Z,2.50
2019-02-07T03:05:57.897Z,2.40
2019-02-07T03:08:34.379Z,2.40
2019-02-07T03:11:08.410Z,2.50
2019-02-07T03:13:54.127Z,2.50
2019-02-07T03:16:25.076Z,2.50
2019-02-07T03:18:56.003Z,2.60
2019-02-07T03:21:30.760Z,2.70
2019-02-07T03:24:17.907Z,2.70
2019-02-07T03:26:54.445Z,2.70
2019-02-07T03:29:36.998Z,2.70
2019-02-07T03:32:10.478Z,2.70
2019-02-07T03:34:43.016Z,2.80
2019-02-07T03:37:14.025Z,2.70
2019-02-07T03:39:54.059Z,2.80
2019-02-07T03:42:37.973Z,2.80
2019-02-07T03:45:26.771Z,2.70
2019-02-07T03:48:09.532Z,2.50
2019-02-07T03:50:55.625Z,2.40
2019-02-07T03:53:35.526Z,2.20
2019-02-07T03:56:25.163Z,2.50
2019-02-07T03:59:12.363Z,2.40
2019-02-07T04:01:49.878Z,2.20
2019-02-07T04:04:23.631Z,2.20
2019-02-07T04:06:57.258Z,2.20
2019-02-07T04:09:44.815Z,2.10
2019-02-07T04:12:19.713Z,2.10
2019-02-07T04:14:52.743Z,2.20
2019-02-07T04:17:29.603Z,2.20
2019-02-07T04:20:15.508Z,2.40
2019-02-07T04:22:52.446Z,2.40
2019-02-07T04:25:34.918Z,2.20
2019-02-07T04:28:09.360Z,2.20
2019-02-07T04:30:40.869Z,2.20
2019-02-07T04:33:16.587Z,2.40
2019-02-07T04:35:50.071Z,2.30
2019-02-07T04:38:26.924Z,2.40
2019-02-07T04:41:09.676Z,2.50
2019-02-07T04:43:40.590Z,2.70
2019-02-07T04:46:27.081Z,2.70
2019-02-07T04:49:01.987Z,2.80
2019-02-07T04:51:35.613Z,2.70
2019-02-07T04:54:09.593Z,2.80
2019-02-07T04:56:46.298Z,2.80
2019-02-07T04:59:19.979Z,2.90
2019-02-07T05:02:03.030Z,3.00
2019-02-07T05:04:50.654Z,3.00
2019-02-07T05:07:39.388Z,3.20
2019-02-07T05:10:30.996Z,3.50
2019-02-07T05:13:07.974Z,3.40
2019-02-07T05:15:54.911Z,3.40
2019-02-07T05:18:44.132Z,3.40
2019-02-07T05:21:21.710Z,3.60
2019-02-07T05:24:08.968Z,3.60
2019-02-07T05:26:42.604Z,3.50
2019-02-07T05:29:22.642Z,3.50
2019-02-07T05:32:10.577Z,3.50
2019-02-07T05:34:44.074Z,3.50
2019-02-07T05:37:26.879Z,3.40
2019-02-07T05:39:57.832Z,3.40
2019-02-07T05:42:44.910Z,3.50
2019-02-07T05:45:15.979Z,3.50
2019-02-07T05:48:01.762Z,3.40
2019-02-07T05:50:36.082Z,3.30
2019-02-07T05:53:23.378Z,3.30
2019-02-07T05:56:09.093Z,3.40
2019-02-07T05:58:43.076Z,3.50
2019-02-07T06:01:30.349Z,3.50
2019-02-07T06:04:18.563Z,3.60
2019-02-07T06:06:49.488Z,3.40
2019-02-07T06:09:35.261Z,3.40
2019-02-07T06:12:24.463Z,3.40
2019-02-07T06:15:01.215Z,3.40
2019-02-07T06:17:48.175Z,3.50
2019-02-07T06:20:21.823Z,3.50
2019-02-07T06:22:52.751Z,3.50
2019-02-07T06:25:23.761Z,3.40
2019-02-07T06:27:54.750Z,3.30
2019-02-07T06:30:31.811Z,3.60
2019-02-07T06:33:03.010Z,3.70
2019-02-07T06:35:36.335Z,3.70
2019-02-07T06:38:23.679Z,3.80
2019-02-07T06:41:04.679Z,3.80
2019-02-07T06:43:35.604Z,3.90
2019-02-07T06:46:15.575Z,4.00
2019-02-07T06:48:52.507Z,3.90
2019-02-07T06:51:32.581Z,3.80
2019-02-07T06:54:03.512Z,4.00
2019-02-07T06:56:40.134Z,4.10
2019-02-07T06:59:19.750Z,4.10
2019-02-07T07:02:02.524Z,4.10
2019-02-07T07:04:33.508Z,4.10
2019-02-07T07:07:10.511Z,4.20
2019-02-07T07:09:59.391Z,4.30
2019-02-07T07:12:46.134Z,4.30
2019-02-07T07:15:17.058Z,4.30
2019-02-07T07:17:51.094Z,3.90
2019-02-07T07:20:22.010Z,5.60
2019-02-07T07:22:55.598Z,4.40
2019-02-07T07:25:29.454Z,4.30
2019-02-07T07:28:03.090Z,4.40
2019-02-07T07:30:34.018Z,4.40
2019-02-07T07:33:22.050Z,4.30
2019-02-07T07:36:01.643Z,4.30
2019-02-07T07:38:48.609Z,4.40
2019-02-07T07:41:23.394Z,4.40
2019-02-07T07:43:57.300Z,4.40
2019-02-07T07:46:46.901Z,4.50
2019-02-07T07:49:20.322Z,4.50
2019-02-07T07:51:53.754Z,4.60
2019-02-07T07:54:37.155Z,4.50
2019-02-07T07:57:11.506Z,4.50
2019-02-07T07:59:58.494Z,4.50
2019-02-07T08:02:32.615Z,4.50
2019-02-07T08:05:03.811Z,4.60
2019-02-07T08:07:51.987Z,4.60
2019-02-07T08:10:39.222Z,4.70
2019-02-07T08:13:15.786Z,4.70
2019-02-07T08:15:52.426Z,4.50
2019-02-07T08:18:23.347Z,4.50
2019-02-07T08:21:11.548Z,4.50
2019-02-07T08:23:51.390Z,4.60
2019-02-07T08:26:25.234Z,4.50
2019-02-07T08:29:06.443Z,4.60
2019-02-07T08:31:47.771Z,4.80
2019-02-07T08:34:36.770Z,4.80
2019-02-07T08:37:11.697Z,4.90
2019-02-07T08:39:42.683Z,5.00
2019-02-07T08:42:13.698Z,5.00
2019-02-07T08:44:44.628Z,5.10
2019-02-07T08:47:18.686Z,5.10
2019-02-07T08:50:07.422Z,5.10
2019-02-07T08:52:50.070Z,5.10
2019-02-07T08:55:35.794Z,5.20
2019-02-07T08:58:24.718Z,5.20
2019-02-07T09:00:55.635Z,5.30
2019-02-07T09:03:35.598Z,5.30
2019-02-07T09:06:18.506Z,5.30
2019-02-07T09:08:49.923Z,5.40
2019-02-07T09:11:37.191Z,5.20
2019-02-07T09:14:16.912Z,5.20
2019-02-07T09:16:51.885Z,5.20
2019-02-07T09:19:22.995Z,5.30
2019-02-07T09:21:56.854Z,5.20
2019-02-07T09:24:27.781Z,5.30
2019-02-07T09:27:09.307Z,5.30
2019-02-07T09:29:40.426Z,5.30
2019-02-07T09:32:26.259Z,6.50
2019-02-07T09:38:02.843Z,5.20
2019-02-07T09:40:36.418Z,5.30
2019-02-07T09:43:10.086Z,5.40
2019-02-07T09:45:57.297Z,5.30
2019-02-07T09:48:44.409Z,5.30
2019-02-07T09:51:15.389Z,5.20
2019-02-07T09:53:46.726Z,5.30
2019-02-07T09:56:17.648Z,5.30
2019-02-07T09:58:48.648Z,5.30
2019-02-07T10:01:20.384Z,5.30
2019-02-07T10:03:51.471Z,5.40
2019-02-07T10:06:22.774Z,5.30
2019-02-07T10:09:02.937Z,5.30
2019-02-07T10:11:36.470Z,5.30
2019-02-07T10:14:24.303Z,5.30
2019-02-07T10:17:10.328Z,5.20
2019-02-07T10:19:44.010Z,5.30
2019-02-07T10:22:29.277Z,5.40
2019-02-07T10:25:00.371Z,5.50
2019-02-07T10:27:40.475Z,5.60
2019-02-07T10:30:20.114Z,5.60
2019-02-07T10:32:51.356Z,5.70
2019-02-07T10:35:23.130Z,5.60
2019-02-07T10:37:59.814Z,5.50
2019-02-07T10:40:33.027Z,5.10
2019-02-07T10:43:22.887Z,5.30
2019-02-07T10:46:10.092Z,5.50
2019-02-07T10:48:44.588Z,5.50
2019-02-07T10:51:29.444Z,5.60
2019-02-07T10:54:03.151Z,5.70
2019-02-07T10:56:34.207Z,5.60
2019-02-07T10:59:08.355Z,5.70
2019-02-07T11:01:39.409Z,5.60
2019-02-07T11:04:10.472Z,5.50
2019-02-07T11:06:41.520Z,5.40
2019-02-07T11:09:15.118Z,5.40
2019-02-07T11:11:52.043Z,7.00
2019-02-07T11:14:41.291Z,5.50
2019-02-07T11:17:12.346Z,5.60
2019-02-07T11:20:01.090Z,5.60
2019-02-07T11:22:40.790Z,5.70
2019-02-07T11:25:11.956Z,5.80
2019-02-07T11:27:54.597Z,5.90
2019-02-07T11:30:34.578Z,5.80
2019-02-07T11:33:05.835Z,5.90
2019-02-07T11:35:36.758Z,6.00
2019-02-07T11:38:10.854Z,6.20
2019-02-07T11:40:50.602Z,6.30
2019-02-07T11:43:37.564Z,6.50
2019-02-07T11:46:17.307Z,6.50
2019-02-07T11:48:48.286Z,7.70
2019-02-07T11:51:30.992Z,6.50
2019-02-07T11:54:17.054Z,6.50
2019-02-07T11:56:47.984Z,6.60
2019-02-07T11:59:27.667Z,6.80
2019-02-07T12:02:08.830Z,6.70
2019-02-07T12:04:41.278Z,6.80
2019-02-07T12:07:12.266Z,6.80
2019-02-07T12:09:49.145Z,6.70
2019-02-07T12:12:29.095Z,6.90
2019-02-07T12:15:09.280Z,6.80
2019-02-07T12:18:04.355Z,6.70
2019-02-07T12:20:47.267Z,6.70
2019-02-07T12:23:27.030Z,7.00
2019-02-07T12:26:03.902Z,7.10
2019-02-07T12:28:40.937Z,7.00
2019-02-07T12:31:27.796Z,7.20
2019-02-07T12:34:02.493Z,7.20
2019-02-07T12:36:33.413Z,7.10
2019-02-07T12:39:19.531Z,7.20
2019-02-07T12:41:53.114Z,7.20
2019-02-07T12:44:24.178Z,7.30
2019-02-07T12:47:07.195Z,7.30
2019-02-07T12:49:57.986Z,7.40
2019-02-07T12:52:31.571Z,7.50
2019-02-07T12:55:05.526Z,7.40
2019-02-07T12:57:51.683Z,7.40
2019-02-07T13:00:23.008Z,7.30
2019-02-07T13:02:53.922Z,7.40
2019-02-07T13:05:24.964Z,7.40
2019-02-07T13:07:58.571Z,7.30
2019-02-07T13:10:45.746Z,7.30
2019-02-07T13:13:32.152Z,7.40
2019-02-07T13:16:11.705Z,7.40
2019-02-07T13:18:58.736Z,7.50
2019-02-07T13:21:45.841Z,7.60
2019-02-07T13:24:16.845Z,7.60
2019-02-07T13:27:03.959Z,7.70
2019-02-07T13:29:40.640Z,7.70
2019-02-07T13:32:14.815Z,7.80
2019-02-07T13:34:48.778Z,7.80
2019-02-07T13:37:34.675Z,7.80
2019-02-07T13:40:24.338Z,7.90
2019-02-07T13:43:10.971Z,7.90
2019-02-07T13:45:59.847Z,8.10
2019-02-07T13:48:33.450Z,8.20
2019-02-07T13:51:20.621Z,8.30
2019-02-07T13:54:07.316Z,8.40
2019-02-07T13:56:55.494Z,8.50
2019-02-07T13:59:36.967Z,8.30
2019-02-07T14:02:24.168Z,8.20
2019-02-07T14:05:13.226Z,8.20
2019-02-07T14:07:46.627Z,8.20
2019-02-07T14:10:17.715Z,8.10
2019-02-07T14:12:48.638Z,8.20
2019-02-07T14:15:22.358Z,8.30
2019-02-07T14:18:09.570Z,8.30
2019-02-07T14:20:49.230Z,8.30
2019-02-07T14:23:20.476Z,8.30
2019-02-07T14:25:54.144Z,8.30
2019-02-07T14:28:36.883Z,8.20
2019-02-07T14:31:07.831Z,8.20
2019-02-07T14:33:44.667Z,8.10
2019-02-07T14:36:23.127Z,8.10
2019-02-07T14:38:58.061Z,8.20
2019-02-07T14:41:31.755Z,8.00
2019-02-07T14:44:17.259Z,7.90
2019-02-07T14:46:50.998Z,7.80
2019-02-07T14:49:21.326Z,7.80
2019-02-07T14:51:51.939Z,7.80
2019-02-07T14:54:22.801Z,7.70
2019-02-07T14:56:52.243Z,7.80
2019-02-07T14:59:21.546Z,7.80
2019-02-07T15:01:50.896Z,7.60
2019-02-07T15:04:20.214Z,7.50
2019-02-07T15:06:49.562Z,7.40
2019-02-07T15:09:20.709Z,7.40
2019-02-07T15:11:50.051Z,7.40
2019-02-07T15:14:19.338Z,7.40
2019-02-07T15:16:50.266Z,7.50
2019-02-07T15:19:20.824Z,7.50
2019-02-07T15:21:51.475Z,7.50
2019-02-07T15:24:20.775Z,7.40
2019-02-07T15:26:50.062Z,7.50
2019-02-07T15:29:19.369Z,7.50
2019-02-07T15:31:48.642Z,7.40
2019-02-07T15:34:18.182Z,7.40
2019-02-07T15:36:48.027Z,8.40
2019-02-07T15:39:19.435Z,7.30
2019-02-07T15:41:49.018Z,7.30
2019-02-07T15:44:19.514Z,7.30
2019-02-07T15:46:48.811Z,7.20
2019-02-07T15:49:18.160Z,7.20
2019-02-07T15:51:48.362Z,7.20
2019-02-07T15:54:17.874Z,7.20
2019-02-07T15:56:48.495Z,7.10
2019-02-07T15:59:22.431Z,7.20
2019-02-07T16:01:53.378Z,7.30
2019-02-07T16:04:24.577Z,7.40
2019-02-07T16:06:53.895Z,7.50
2019-02-07T16:09:23.200Z,7.60
2019-02-07T16:11:52.491Z,7.60
2019-02-07T16:14:21.867Z,7.50
2019-02-07T16:16:52.186Z,7.40
2019-02-07T16:19:22.125Z,7.30
2019-02-07T16:21:52.514Z,7.30
2019-02-07T16:24:21.819Z,7.10
2019-02-07T16:26:51.474Z,7.10
2019-02-07T16:29:20.835Z,7.10
2019-02-07T16:31:50.115Z,6.90
2019-02-07T16:34:20.413Z,6.90
2019-02-07T16:36:49.695Z,6.70
2019-02-07T16:39:20.801Z,6.70
2019-02-07T16:41:50.783Z,6.60
2019-02-07T16:44:20.624Z,6.40
2019-02-07T16:46:50.374Z,6.40
2019-02-07T16:49:19.738Z,6.40
2019-02-07T16:51:49.095Z,6.40
2019-02-07T16:54:18.400Z,6.30
2019-02-07T16:56:47.680Z,6.20
2019-02-07T16:59:17.956Z,6.30
2019-02-07T17:01:47.587Z,6.30
2019-02-07T17:04:17.059Z,6.30
2019-02-07T17:06:46.443Z,6.40
2019-02-07T17:09:17.609Z,6.20
2019-02-07T17:11:47.026Z,6.20
2019-02-07T17:14:16.317Z,6.10
2019-02-07T17:16:45.875Z,6.20
2019-02-07T17:19:15.251Z,6.10
2019-02-07T17:21:44.606Z,6.10
2019-02-07T17:24:14.489Z,5.90
2019-02-07T17:26:43.779Z,5.90
2019-02-07T17:29:13.197Z,6.00
2019-02-07T17:31:42.752Z,6.00
2019-02-07T17:34:12.117Z,5.90
2019-02-07T17:36:41.486Z,6.00
2019-02-07T17:39:10.920Z,6.00
2019-02-07T17:41:43.934Z,6.00
2019-02-07T17:44:13.353Z,5.90
2019-02-07T17:46:44.747Z,5.90
2019-02-07T17:49:14.099Z,6.00
2019-02-07T17:51:43.438Z,5.90
2019-02-07T17:54:18.804Z,5.80
2019-02-07T17:56:44.739Z,5.80
2019-02-07T17:59:15.331Z,5.70
2019-02-07T18:01:44.854Z,5.70
2019-02-07T18:04:14.163Z,5.70
2019-02-07T18:06:44.579Z,5.80
2019-02-07T18:09:13.947Z,5.90
2019-02-07T18:11:43.799Z,5.80
2019-02-07T18:14:14.146Z,5.90
2019-02-07T18:16:44.250Z,6.00
2019-02-07T18:19:13.778Z,5.80
2019-02-07T18:21:43.068Z,5.80
2019-02-07T18:24:12.371Z,5.60
2019-02-07T18:26:41.663Z,5.60
2019-02-07T18:29:12.671Z,5.50
2019-02-07T18:31:43.110Z,5.60
2019-02-07T18:34:12.418Z,5.70
2019-02-07T18:36:42.375Z,5.70
2019-02-07T18:39:13.242Z,5.80
2019-02-07T18:41:42.547Z,5.70
2019-02-07T18:44:12.123Z,5.80
2019-02-07T18:46:41.422Z,5.70
2019-02-07T18:49:10.726Z,5.70
2019-02-07T18:51:45.659Z,5.70
2019-02-07T18:54:10.998Z,5.80
2019-02-07T18:56:40.289Z,5.80
2019-02-07T18:59:09.870Z,5.80
2019-02-07T19:01:39.145Z,5.70
2019-02-07T19:04:08.462Z,5.80
2019-02-07T19:06:37.756Z,5.60
2019-02-07T19:09:08.951Z,5.60
2019-02-07T19:11:38.383Z,5.60
2019-02-07T19:14:08.241Z,5.40
2019-02-07T19:16:37.599Z,5.50
2019-02-07T19:19:06.963Z,5.50
2019-02-07T19:21:36.331Z,5.60
2019-02-07T19:24:05.750Z,5.60
2019-02-07T19:26:35.060Z,5.60
2019-02-07T19:29:05.391Z,5.60
2019-02-07T19:31:34.695Z,5.60
2019-02-07T19:34:04.410Z,5.50
2019-02-07T19:36:33.719Z,5.40
2019-02-07T19:39:05.107Z,5.40
2019-02-07T19:41:36.288Z,5.50
2019-02-07T19:44:06.176Z,5.50
2019-02-07T19:46:35.574Z,5.50
2019-02-07T19:49:05.066Z,5.50
2019-02-07T19:51:34.473Z,5.50
2019-02-07T19:54:03.879Z,5.50
2019-02-07T19:56:33.166Z,5.50
2019-02-07T19:59:02.922Z,5.60
2019-02-07T20:01:32.275Z,5.60
2019-02-07T20:04:01.578Z,5.40
2019-02-07T20:06:30.930Z,5.50
2019-02-07T20:09:00.306Z,5.50
2019-02-07T20:11:30.674Z,5.40
2019-02-07T20:14:00.049Z,5.50
2019-02-07T20:16:29.602Z,5.70
2019-02-07T20:18:58.994Z,5.60
2019-02-07T20:21:28.306Z,5.50
2019-02-07T20:23:58.575Z,5.50
2019-02-07T20:26:27.936Z,5.70
2019-02-07T20:28:57.291Z,5.80
2019-02-07T20:31:27.054Z,5.70
2019-02-07T20:33:58.040Z,5.60
2019-02-07T20:36:27.411Z,5.70
2019-02-07T20:38:58.291Z,5.70
2019-02-07T20:41:27.604Z,5.70
2019-02-07T20:43:57.042Z,5.70
2019-02-07T20:46:26.438Z,5.80
2019-02-07T20:48:55.799Z,5.70
2019-02-07T20:51:26.375Z,5.60
2019-02-07T20:53:55.752Z,5.60
2019-02-07T20:56:25.072Z,5.50
2019-02-07T20:58:55.985Z,5.40
2019-02-07T21:01:25.334Z,5.50
2019-02-07T21:03:54.971Z,5.70
2019-02-07T21:06:24.355Z,5.80
2019-02-07T21:08:53.643Z,5.70
2019-02-07T21:11:22.943Z,5.70
2019-02-07T21:13:52.219Z,5.60
2019-02-07T21:16:21.986Z,5.60
2019-02-07T21:18:51.339Z,5.70
2019-02-07T21:21:21.210Z,5.80
2019-02-07T21:23:50.733Z,6.10
2019-02-07T21:26:20.335Z,6.20
2019-02-07T21:28:49.603Z,6.20
2019-02-07T21:31:18.908Z,6.20
2019-02-07T21:33:48.508Z,6.30
2019-02-07T21:36:18.290Z,6.40
2019-02-07T21:38:47.813Z,6.40
2019-02-07T21:41:17.112Z,6.50
2019-02-07T21:43:46.399Z,6.70
2019-02-07T21:46:15.771Z,6.70
2019-02-07T21:48:45.114Z,6.70
2019-02-07T21:51:14.480Z,6.70
2019-02-07T21:53:43.867Z,6.70
2019-02-07T21:56:13.164Z,6.70
2019-02-07T21:58:43.584Z,6.70
2019-02-07T22:01:13.528Z,6.80
2019-02-07T22:03:42.870Z,6.70
2019-02-07T22:06:12.250Z,6.80
2019-02-07T22:08:41.542Z,6.90
2019-02-07T22:11:10.822Z,6.80
2019-02-07T22:13:40.135Z,6.80
2019-02-07T22:16:09.414Z,6.90
2019-02-07T22:18:38.727Z,7.00
2019-02-07T22:21:08.015Z,6.80
2019-02-07T22:23:37.378Z,6.60
2019-02-07T22:26:06.814Z,6.70
2019-02-07T22:28:36.099Z,6.70
2019-02-07T22:31:05.402Z,6.60
2019-02-07T22:33:34.687Z,6.60
2019-02-07T22:36:04.763Z,6.40
2019-02-07T22:38:34.218Z,6.50
2019-02-07T22:41:03.522Z,6.40
2019-02-07T22:43:32.814Z,6.30
2019-02-07T22:46:02.115Z,6.30
2019-02-07T22:48:31.475Z,6.10
2019-02-07T22:51:00.764Z,6.30
2019-02-07T22:53:30.325Z,6.50
2019-02-07T22:56:00.610Z,6.40
2019-02-07T22:58:29.946Z,6.50
2019-02-07T23:01:05.365Z,6.40
2019-02-07T23:03:35.790Z,6.50
2019-02-07T23:06:05.363Z,6.60
2019-02-07T23:08:34.658Z,6.60
2019-02-07T23:11:04.640Z,6.60
2019-02-07T23:13:33.972Z,6.40
2019-02-07T23:16:04.927Z,6.30
2019-02-07T23:18:34.206Z,6.30
2019-02-07T23:21:04.170Z,6.20
2019-02-07T23:23:33.475Z,6.20
2019-02-07T23:26:02.822Z,6.30
2019-02-07T23:28:32.651Z,6.40
2019-02-07T23:31:01.947Z,6.40
2019-02-07T23:33:31.299Z,6.40
2019-02-07T23:36:01.659Z,6.50
2019-02-07T23:38:30.940Z,6.60
2019-02-07T23:41:00.451Z,6.40
2019-02-07T23:43:29.813Z,6.40
2019-02-07T23:45:59.152Z,6.40
2019-02-07T23:48:28.491Z,6.40
2019-02-07T23:51:01.070Z,6.40
2019-02-07T23:53:30.343Z,6.40
2019-02-07T23:55:59.656Z,6.40
2019-02-07T23:58:28.998Z,6.30
